Time;durP1;ratioP1;P1;durP2;ratioP2;P2;SDS_P1;SDS_P2;PMS_P1;PMS_P2;Temp;Humidity;BMP_temperature;BMP_pressure;BME280_temperature;BME280_humidity;BME280_pressure;Samples;Min_cycle;Max_cycle;Signal;HPM_P1;HPM_P2
2023/03/30 00:00:23;;;;;;;4.45;1.67;;;16.90;50.60;;;;;;5082073;28;20318;-54
2023/03/30 00:02:53;;;;;;;4.40;2.05;;;16.90;50.60;;;;;;5074679;28;20280;-55
2023/03/30 00:05:24;;;;;;;3.10;1.65;;;16.90;50.60;;;;;;5085443;28;20229;-54
2023/03/30 00:07:55;;;;;;;3.65;2.05;;;16.90;50.70;;;;;;5074624;28;20206;-53
2023/03/30 00:10:26;;;;;;;4.10;2.10;;;16.90;50.70;;;;;;5074230;28;20222;-54
2023/03/30 00:12:57;;;;;;;2.63;1.55;;;17.00;50.80;;;;;;5073796;28;20195;-54
2023/03/30 00:15:30;;;;;;;4.43;1.70;;;17.00;50.80;;;;;;5078034;28;20218;-55
2023/03/30 00:18:00;;;;;;;3.83;1.77;;;17.00;50.90;;;;;;5095053;28;20198;-55
2023/03/30 00:20:33;;;;;;;3.40;1.83;;;17.00;50.80;;;;;;5094891;28;20190;-56
2023/03/30 00:23:03;;;;;;;3.78;1.85;;;17.00;50.80;;;;;;5094622;28;20222;-55
2023/03/30 00:25:34;;;;;;;3.00;1.67;;;17.10;50.80;;;;;;5094164;28;20198;-54
2023/03/30 00:28:05;;;;;;;3.80;1.70;;;17.10;50.80;;;;;;5087344;28;20198;-56
2023/03/30 00:30:37;;;;;;;3.45;1.75;;;17.10;50.80;;;;;;5073795;28;20206;-54
2023/03/30 00:33:08;;;;;;;3.60;1.85;;;17.10;50.80;;;;;;5073824;28;20666;-55
2023/03/30 00:35:39;;;;;;;1.92;1.40;;;17.10;50.80;;;;;;5075164;28;20223;-50
2023/03/30 00:38:09;;;;;;;2.65;1.70;;;17.10;50.80;;;;;;5093635;28;20198;-54
2023/03/30 00:40:40;;;;;;;3.55;1.80;;;17.10;50.90;;;;;;5094019;28;20199;-51
2023/03/30 00:43:14;;;;;;;3.40;2.13;;;17.20;51.00;;;;;;5093919;28;20547;-52
2023/03/30 00:45:47;;;;;;;2.83;1.70;;;17.20;51.00;;;;;;5078160;28;20206;-54
2023/03/30 00:48:20;;;;;;;4.47;1.95;;;17.20;51.00;;;;;;5077737;28;20209;-50
2023/03/30 00:50:55;;;;;;;4.75;1.75;;;17.20;51.00;;;;;;5093910;28;20194;-53
2023/03/30 00:53:31;;;;;;;4.10;1.90;;;17.30;51.10;;;;;;5093394;28;20686;-54
2023/03/30 00:56:04;;;;;;;2.78;1.95;;;17.30;51.00;;;;;;5091151;28;20233;-52
2023/03/30 00:58:35;;;;;;;3.08;1.55;;;17.30;51.00;;;;;;5072656;28;20230;-52
2023/03/30 01:01:11;;;;;;;4.47;1.80;;;17.30;51.00;;;;;;5073335;28;20218;-54
2023/03/30 01:03:45;;;;;;;4.15;1.63;;;17.40;51.00;;;;;;5073797;28;20222;-50
2023/03/30 01:06:20;;;;;;;4.35;1.95;;;17.40;50.90;;;;;;5073204;28;20740;-53
2023/03/30 01:08:51;;;;;;;3.33;1.80;;;17.40;50.90;;;;;;5070011;22;20231;-46
2023/03/30 01:11:22;;;;;;;3.00;1.60;;;17.40;50.90;;;;;;5052347;28;20195;-47
2023/03/30 01:13:58;;;;;;;4.70;1.70;;;17.40;50.90;;;;;;5052700;28;20196;-47
2023/03/30 01:16:39;;;;;;;3.10;1.45;;;17.40;50.90;;;;;;5052830;28;20722;-48
2023/03/30 01:19:38;;;;;;;2.88;1.48;;;17.40;50.90;;;;;;5052438;28;20277;-47
2023/03/30 01:22:42;;;;;;;2.05;1.40;;;17.50;50.90;;;;;;5052808;28;20560;-45
2023/03/30 01:25:46;;;;;;;2.83;1.60;;;17.50;51.00;;;;;;5052757;28;20679;-45
2023/03/30 01:28:27;;;;;;;2.15;1.58;;;17.60;51.10;;;;;;5051649;28;20203;-46
2023/03/30 01:31:26;;;;;;;3.80;1.80;;;17.60;51.10;;;;;;5052502;28;20196;-47
2023/03/30 01:34:29;;;;;;;3.88;1.40;;;17.60;51.10;;;;;;5052572;28;20215;-46
2023/03/30 01:37:30;;;;;;;3.35;1.45;;;17.60;51.10;;;;;;5052712;28;20219;-48
2023/03/30 01:40:08;;;;;;;3.00;1.92;;;17.70;51.10;;;;;;5052762;28;20215;-47
2023/03/30 01:42:46;;;;;;;4.63;1.70;;;17.70;51.00;;;;;;5052750;28;20545;-48
2023/03/30 01:45:24;;;;;;;3.30;1.55;;;17.70;51.00;;;;;;5052745;28;20199;-47
2023/03/30 01:47:59;;;;;;;3.47;1.42;;;17.80;51.10;;;;;;5052607;28;20568;-45
2023/03/30 01:50:36;;;;;;;2.80;1.48;;;17.70;51.00;;;;;;5051974;28;20651;-46
2023/03/30 01:53:13;;;;;;;1.98;1.38;;;17.80;51.10;;;;;;5012751;28;20200;-46
2023/03/30 01:55:48;;;;;;;2.95;1.17;;;17.80;51.20;;;;;;5042066;28;20231;-44
2023/03/30 01:58:24;;;;;;;2.83;1.60;;;17.80;51.20;;;;;;5052502;28;20656;-45
2023/03/30 02:00:57;;;;;;;2.90;1.40;;;17.80;51.20;;;;;;5051899;28;20210;-48
2023/03/30 02:03:30;;;;;;;3.85;1.45;;;17.90;51.20;;;;;;5052154;28;20216;-48
2023/03/30 02:06:05;;;;;;;2.50;1.60;;;17.90;51.20;;;;;;5040605;28;20660;-45
2023/03/30 02:08:38;;;;;;;2.75;1.35;;;17.90;51.20;;;;;;5031401;28;20715;-47
2023/03/30 02:11:11;;;;;;;2.15;1.23;;;17.90;51.20;;;;;;5035040;28;20206;-47
2023/03/30 02:13:43;;;;;;;3.28;1.48;;;18.00;51.20;;;;;;5052339;28;20201;-46
2023/03/30 02:16:17;;;;;;;2.33;1.30;;;18.00;51.10;;;;;;5051882;28;20234;-45
2023/03/30 02:18:48;;;;;;;2.10;1.35;;;18.00;51.10;;;;;;5051726;28;20718;-45
2023/03/30 02:21:19;;;;;;;3.13;1.42;;;18.00;51.00;;;;;;5038074;28;20609;-46
2023/03/30 02:23:50;;;;;;;2.20;1.33;;;18.10;51.00;;;;;;5031937;28;20321;-45
2023/03/30 02:26:23;;;;;;;1.70;1.30;;;18.10;51.00;;;;;;5036421;28;20206;-45
2023/03/30 02:28:55;;;;;;;2.22;1.23;;;18.10;51.00;;;;;;5051319;28;20707;-45
2023/03/30 02:31:25;;;;;;;1.77;1.17;;;18.10;51.00;;;;;;5051489;28;20234;-46
2023/03/30 02:34:11;;;;;;;2.03;1.35;;;18.20;50.90;;;;;;5051563;28;20199;-47
2023/03/30 02:37:13;;;;;;;2.92;1.10;;;18.20;50.90;;;;;;5051095;28;20693;-46
2023/03/30 02:39:56;;;;;;;2.00;1.30;;;18.20;50.90;;;;;;5031157;28;20693;-46
2023/03/30 02:42:44;;;;;;;1.85;1.15;;;18.20;50.80;;;;;;5031720;28;20544;-45
2023/03/30 02:45:36;;;;;;;2.42;1.38;;;18.20;50.80;;;;;;5042599;28;20207;-48
2023/03/30 02:48:24;;;;;;;4.72;1.65;;;18.30;50.80;;;;;;5051196;28;20200;-46
2023/03/30 02:51:02;;;;;;;2.15;1.25;;;18.30;50.80;;;;;;5038289;28;20192;-45
2023/03/30 02:53:39;;;;;;;2.28;1.35;;;18.30;50.70;;;;;;5050478;28;20207;-48
2023/03/30 02:56:18;;;;;;;3.47;1.50;;;18.40;50.70;;;;;;5050686;28;20226;-45
2023/03/30 02:58:55;;;;;;;2.95;1.27;;;18.40;50.60;;;;;;5050434;28;20260;-44
2023/03/30 03:01:33;;;;;;;2.53;1.48;;;18.40;50.60;;;;;;5050861;28;20203;-45
2023/03/30 03:04:06;;;;;;;2.55;1.40;;;18.40;50.50;;;;;;5051081;28;20569;-48
2023/03/30 03:06:37;;;;;;;3.00;1.15;;;18.50;50.50;;;;;;5051382;28;20195;-46
2023/03/30 03:09:08;;;;;;;1.83;1.10;;;18.40;50.50;;;;;;5051589;28;20223;-45
2023/03/30 03:11:39;;;;;;;2.60;1.50;;;18.50;50.50;;;;;;5050994;28;20207;-45
2023/03/30 03:14:11;;;;;;;3.08;1.55;;;18.50;50.40;;;;;;5015908;28;20196;-44
2023/03/30 03:16:42;;;;;;;1.92;1.30;;;18.50;50.40;;;;;;5050973;28;20259;-46
2023/03/30 03:19:13;;;;;;;3.42;1.20;;;18.50;50.40;;;;;;5050823;28;20211;-44
2023/03/30 03:21:44;;;;;;;2.03;1.17;;;18.50;50.30;;;;;;5050756;28;20203;-44
2023/03/30 03:24:16;;;;;;;1.88;1.00;;;18.60;50.30;;;;;;5051357;28;20199;-45
2023/03/30 03:26:46;;;;;;;2.70;1.20;;;18.60;50.30;;;;;;5051058;28;20211;-45
2023/03/30 03:29:19;;;;;;;3.97;1.50;;;18.60;50.30;;;;;;5050869;28;20220;-44
2023/03/30 03:31:50;;;;;;;4.03;1.20;;;18.60;50.30;;;;;;5051069;28;20907;-45
2023/03/30 03:34:21;;;;;;;1.70;1.00;;;18.60;50.20;;;;;;5019022;28;20570;-46
2023/03/30 03:36:53;;;;;;;1.40;0.90;;;18.60;50.30;;;;;;5050141;28;20227;-44
2023/03/30 03:39:24;;;;;;;1.83;0.95;;;18.60;50.20;;;;;;5050647;28;20296;-48
2023/03/30 03:41:56;;;;;;;2.22;1.08;;;18.60;50.20;;;;;;5050428;28;20287;-45
2023/03/30 03:44:29;;;;;;;1.90;1.10;;;18.60;50.10;;;;;;5050976;28;20206;-45
2023/03/30 03:47:00;;;;;;;2.05;1.20;;;18.60;50.10;;;;;;5050941;28;20192;-46
2023/03/30 03:49:30;;;;;;;2.75;1.13;;;18.60;50.10;;;;;;5050592;28;20216;-45
2023/03/30 03:52:01;;;;;;;2.47;1.17;;;18.70;50.10;;;;;;5051180;28;20206;-45
2023/03/30 03:54:32;;;;;;;1.73;1.10;;;18.70;50.10;;;;;;5051035;28;20258;-44
2023/03/30 03:57:02;;;;;;;2.05;1.00;;;18.70;50.10;;;;;;5050562;28;20227;-44
2023/03/30 03:59:35;;;;;;;2.20;1.17;;;18.70;50.10;;;;;;5050616;28;20691;-47
2023/03/30 04:02:06;;;;;;;2.95;0.98;;;18.70;50.10;;;;;;5044321;28;20188;-44
2023/03/30 04:04:37;;;;;;;2.08;1.15;;;18.70;50.10;;;;;;5032333;28;20196;-44
2023/03/30 04:07:14;;;;;;;2.38;1.30;;;18.70;50.10;;;;;;5050520;28;20663;-45
2023/03/30 04:09:44;;;;;;;2.63;1.38;;;18.70;50.10;;;;;;5050393;28;20602;-45
2023/03/30 04:12:15;;;;;;;1.98;1.10;;;18.70;50.10;;;;;;5050732;28;20199;-48
2023/03/30 04:14:48;;;;;;;1.75;0.93;;;18.70;50.10;;;;;;5050713;28;20196;-44
2023/03/30 04:17:22;;;;;;;2.58;1.20;;;18.70;50.10;;;;;;5050476;28;20234;-44
2023/03/30 04:19:53;;;;;;;2.35;1.08;;;18.70;50.70;;;;;;5050697;28;20332;-44
2023/03/30 04:22:25;;;;;;;2.17;1.08;;;18.80;50.10;;;;;;5043969;28;20657;-45
2023/03/30 04:24:56;;;;;;;1.77;1.20;;;18.80;50.00;;;;;;5030577;28;20232;-44
2023/03/30 04:27:27;;;;;;;2.75;1.20;;;18.80;50.00;;;;;;5044108;28;20221;-45
2023/03/30 04:30:00;;;;;;;2.75;1.10;;;18.80;50.00;;;;;;5050279;28;20298;-44
2023/03/30 04:32:33;;;;;;;1.45;0.98;;;18.80;50.00;;;;;;5051700;28;20671;-44
2023/03/30 04:35:04;;;;;;;1.67;0.90;;;18.80;49.90;;;;;;5054461;28;20254;-44
2023/03/30 04:37:37;;;;;;;2.80;1.10;;;18.80;49.90;;;;;;5053830;28;20231;-44
2023/03/30 04:40:09;;;;;;;2.42;1.08;;;18.80;49.90;;;;;;5053564;28;20219;-45
2023/03/30 04:42:40;;;;;;;2.05;1.00;;;18.80;50.00;;;;;;5052544;28;20250;-46
2023/03/30 04:45:13;;;;;;;2.40;1.20;;;18.80;50.00;;;;;;5034556;28;20199;-45
2023/03/30 04:47:44;;;;;;;1.60;1.17;;;18.80;50.00;;;;;;5034062;28;20196;-45
2023/03/30 04:50:14;;;;;;;1.27;0.95;;;18.80;50.00;;;;;;5033848;28;20281;-45
2023/03/30 04:52:45;;;;;;;1.02;0.93;;;18.80;50.00;;;;;;5033939;28;20203;-44
2023/03/30 04:55:16;;;;;;;2.45;1.05;;;18.80;50.00;;;;;;5033590;28;20652;-45
2023/03/30 04:57:46;;;;;;;1.70;1.00;;;18.80;50.00;;;;;;5050026;28;20234;-45
2023/03/30 05:00:20;;;;;;;2.70;1.30;;;18.80;50.00;;;;;;5053308;28;20224;-44
2023/03/30 05:02:51;;;;;;;1.60;1.00;;;18.80;49.90;;;;;;5053568;28;20208;-47
2023/03/30 05:05:21;;;;;;;1.50;1.08;;;18.80;49.90;;;;;;5053599;28;20199;-46
2023/03/30 05:07:52;;;;;;;1.70;1.02;;;18.90;49.90;;;;;;5048009;28;20195;-45
2023/03/30 05:10:23;;;;;;;2.42;1.20;;;18.90;49.90;;;;;;5033815;28;20243;-45
2023/03/30 05:12:56;;;;;;;2.45;1.23;;;18.90;49.90;;;;;;5033252;28;20192;-44
2023/03/30 05:15:29;;;;;;;2.15;1.23;;;18.90;49.90;;;;;;5033853;28;20330;-46
2023/03/30 05:18:00;;;;;;;1.88;0.93;;;18.90;49.90;;;;;;5033562;28;20230;-47
2023/03/30 05:20:31;;;;;;;1.58;0.70;;;18.90;49.90;;;;;;5050466;28;20196;-44
2023/03/30 05:23:01;;;;;;;1.77;1.00;;;18.90;49.90;;;;;;5053607;28;20195;-46
2023/03/30 05:25:32;;;;;;;2.60;1.25;;;18.90;49.90;;;;;;5053088;28;20202;-46
2023/03/30 05:28:03;;;;;;;2.13;1.15;;;18.90;49.90;;;;;;5052755;28;20196;-44
2023/03/30 05:30:35;;;;;;;2.47;1.10;;;18.90;49.90;;;;;;5052308;28;20286;-47
2023/03/30 05:33:08;;;;;;;1.50;1.25;;;18.90;49.90;;;;;;5053048;28;20195;-44
2023/03/30 05:35:39;;;;;;;1.50;1.02;;;18.90;49.90;;;;;;5052907;28;20727;-47
2023/03/30 05:38:10;;;;;;;1.85;1.10;;;18.90;49.90;;;;;;5052602;28;20223;-44
2023/03/30 05:40:40;;;;;;;3.08;1.30;;;18.90;49.90;;;;;;5052643;28;20652;-45
2023/03/30 05:43:11;;;;;;;2.33;1.13;;;18.90;49.90;;;;;;5052255;28;20226;-49
2023/03/30 05:45:44;;;;;;;2.00;1.30;;;18.90;49.90;;;;;;5052444;28;20191;-44
2023/03/30 05:48:14;;;;;;;1.25;1.10;;;18.90;49.90;;;;;;5052196;28;20203;-46
2023/03/30 05:50:45;;;;;;;1.92;1.40;;;18.90;49.90;;;;;;5052214;28;20196;-45
2023/03/30 05:53:16;;;;;;;2.33;1.30;;;18.90;50.50;;;;;;5052928;28;20244;-47
2023/03/30 05:55:47;;;;;;;2.15;1.17;;;18.90;49.90;;;;;;5052508;28;20191;-45
2023/03/30 05:58:19;;;;;;;3.08;1.63;;;18.90;49.90;;;;;;5051653;28;20223;-49
2023/03/30 06:00:53;;;;;;;4.75;2.05;;;18.90;49.90;;;;;;5036198;28;20658;-45
2023/03/30 06:03:23;;;;;;;3.40;2.08;;;18.90;49.90;;;;;;5026987;28;20192;-47
2023/03/30 06:05:55;;;;;;;5.18;2.13;;;18.90;49.90;;;;;;5016866;28;20223;-44
2023/03/30 06:08:26;;;;;;;6.95;2.80;;;18.90;49.90;;;;;;5023890;28;20608;-44
2023/03/30 06:10:57;;;;;;;5.97;2.88;;;18.90;49.80;;;;;;5032080;28;20653;-44
2023/03/30 06:13:28;;;;;;;6.40;2.95;;;18.90;49.90;;;;;;5032213;28;20679;-43
2023/03/30 06:16:01;;;;;;;6.18;3.17;;;18.80;49.80;;;;;;5032207;28;20192;-46
2023/03/30 06:18:31;;;;;;;8.50;3.38;;;18.80;49.80;;;;;;5028864;28;20228;-44
2023/03/30 06:21:05;;;;;;;7.63;3.10;;;18.90;49.90;;;;;;5023648;28;20204;-45
2023/03/30 06:23:36;;;;;;;6.90;3.28;;;18.80;49.90;;;;;;5032034;28;20258;-45
2023/03/30 06:26:08;;;;;;;10.45;3.83;;;18.80;49.90;;;;;;5019252;28;20304;-44
2023/03/30 06:28:39;;;;;;;9.05;3.50;;;18.80;49.90;;;;;;5051269;28;20219;-45
2023/03/30 06:31:15;;;;;;;6.25;3.05;;;18.80;49.90;;;;;;5044310;28;20196;-46
2023/03/30 06:33:45;;;;;;;7.07;3.33;;;18.80;49.90;;;;;;5032166;28;20230;-44
2023/03/30 06:36:17;;;;;;;8.63;3.53;;;18.90;49.90;;;;;;5031836;28;20204;-45
2023/03/30 06:38:48;;;;;;;6.88;3.38;;;18.80;49.90;;;;;;5031893;28;20587;-45
2023/03/30 06:41:19;;;;;;;7.78;3.22;;;18.80;49.80;;;;;;5020974;28;20316;-44
2023/03/30 06:43:49;;;;;;;9.45;3.70;;;18.80;49.90;;;;;;5026410;28;20223;-44
2023/03/30 06:46:22;;;;;;;6.30;3.25;;;18.80;49.80;;;;;;5025051;28;20207;-44
2023/03/30 06:48:53;;;;;;;9.20;3.90;;;18.80;49.80;;;;;;5031486;28;20235;-44
2023/03/30 06:51:23;;;;;;;6.32;3.30;;;18.80;49.80;;;;;;5031834;28;20195;-45
2023/03/30 06:53:54;;;;;;;6.53;3.65;;;18.80;49.80;;;;;;5031600;28;20204;-45
2023/03/30 06:56:25;;;;;;;6.97;3.67;;;18.80;49.80;;;;;;5036284;28;20572;-45
2023/03/30 06:58:56;;;;;;;6.10;3.30;;;18.80;49.90;;;;;;5032029;28;20592;-45
2023/03/30 07:01:28;;;;;;;6.85;3.58;;;18.80;49.90;;;;;;5031394;28;20196;-48
2023/03/30 07:03:59;;;;;;;9.73;3.25;;;18.80;49.90;;;;;;5043148;28;20203;-45
2023/03/30 07:06:29;;;;;;;7.10;3.35;;;18.80;49.90;;;;;;5050553;28;20194;-44
2023/03/30 07:09:00;;;;;;;6.45;2.83;;;18.80;49.90;;;;;;5050292;28;20227;-44
2023/03/30 07:11:31;;;;;;;9.48;3.50;;;18.80;49.80;;;;;;5050436;28;20202;-45
2023/03/30 07:14:04;;;;;;;6.80;3.20;;;18.80;49.90;;;;;;5050332;28;20207;-44
2023/03/30 07:16:37;;;;;;;6.32;3.20;;;18.80;49.80;;;;;;5050513;28;20204;-44
2023/03/30 07:19:07;;;;;;;6.78;3.60;;;18.80;49.90;;;;;;5050603;28;20227;-44
2023/03/30 07:21:38;;;;;;;6.70;3.20;;;18.80;49.80;;;;;;5051077;28;20540;-47
2023/03/30 07:24:09;;;;;;;9.27;3.95;;;18.80;49.80;;;;;;5051291;28;20199;-47
2023/03/30 07:26:39;;;;;;;7.90;3.67;;;18.80;49.80;;;;;;5051204;28;20245;-45
2023/03/30 07:29:10;;;;;;;7.28;3.80;;;18.80;49.80;;;;;;5051230;28;20219;-44
2023/03/30 07:31:43;;;;;;;6.78;3.75;;;18.80;49.80;;;;;;5051242;28;20777;-45
2023/03/30 07:34:13;;;;;;;7.25;3.90;;;18.80;49.90;;;;;;5049105;28;20206;-46
2023/03/30 07:36:44;;;;;;;9.68;4.35;;;18.80;49.90;;;;;;5018303;28;20200;-46
2023/03/30 07:39:15;;;;;;;8.02;3.78;;;18.70;49.80;;;;;;5011480;28;20286;-45
2023/03/30 07:41:45;;;;;;;8.55;4.13;;;18.80;49.90;;;;;;5014970;28;20200;-45
2023/03/30 07:44:16;;;;;;;7.70;3.70;;;18.70;49.80;;;;;;5031493;28;20679;-45
2023/03/30 07:46:49;;;;;;;8.60;3.70;;;18.70;49.80;;;;;;5031453;28;20215;-44
2023/03/30 07:49:19;;;;;;;6.97;3.28;;;18.70;49.80;;;;;;5031131;28;20918;-49
2023/03/30 07:51:50;;;;;;;5.35;3.28;;;18.70;49.80;;;;;;5011544;28;20196;-44
2023/03/30 07:54:21;;;;;;;8.75;4.28;;;18.70;49.80;;;;;;5011446;28;20267;-44
2023/03/30 07:56:52;;;;;;;7.47;3.97;;;18.70;49.80;;;;;;5029628;28;20660;-46
2023/03/30 07:59:23;;;;;;;7.90;3.55;;;18.70;49.80;;;;;;5050597;28;20318;-44
2023/03/30 08:01:56;;;;;;;7.85;3.70;;;18.70;49.80;;;;;;5049001;28;20200;-46
2023/03/30 08:04:27;;;;;;;8.02;3.63;;;18.70;49.90;;;;;;5031062;28;20660;-46
2023/03/30 08:06:57;;;;;;;7.05;3.28;;;18.70;49.90;;;;;;5032192;28;20200;-45
2023/03/30 08:09:28;;;;;;;7.03;3.72;;;18.70;50.50;;;;;;5034311;28;20598;-43
2023/03/30 08:11:59;;;;;;;8.57;3.22;;;18.70;49.90;;;;;;5067214;22;20229;-54
2023/03/30 08:14:30;;;;;;;9.05;4.03;;;18.70;49.90;;;;;;5070924;28;20184;-54
2023/03/30 08:17:02;;;;;;;7.15;3.58;;;18.60;49.90;;;;;;5073976;28;20214;-52
2023/03/30 08:19:33;;;;;;;5.70;3.22;;;18.70;49.90;;;;;;5073931;28;20227;-55
2023/03/30 08:22:04;;;;;;;8.38;3.47;;;18.70;49.90;;;;;;5074475;28;20187;-52
2023/03/30 08:24:34;;;;;;;5.82;3.42;;;18.70;49.90;;;;;;5069733;28;20191;-54
2023/03/30 08:27:05;;;;;;;7.70;3.67;;;18.70;49.90;;;;;;5046018;28;20203;-54
2023/03/30 08:29:36;;;;;;;7.97;3.45;;;18.60;49.90;;;;;;5054129;28;20251;-56
2023/03/30 08:32:09;;;;;;;8.65;3.33;;;18.60;49.80;;;;;;5054415;28;20195;-50
2023/03/30 08:34:40;;;;;;;8.25;3.45;;;18.60;49.90;;;;;;5054177;28;20644;-53
2023/03/30 08:37:11;;;;;;;5.65;3.28;;;18.70;49.90;;;;;;5054244;28;20670;-56
2023/03/30 08:39:41;;;;;;;7.65;3.55;;;18.60;49.90;;;;;;5053584;28;20563;-53
2023/03/30 08:42:37;;;;;;;8.10;3.55;;;18.60;49.90;;;;;;5053608;28;20678;-54
2023/03/30 08:45:09;;;;;;;6.00;3.13;;;18.60;50.00;;;;;;5045149;28;20270;-56
2023/03/30 08:47:47;;;;;;;8.23;3.10;;;18.60;49.90;;;;;;5053535;28;20200;-53
2023/03/30 08:50:20;;;;;;;5.45;3.17;;;18.60;49.90;;;;;;5044269;28;20223;-56
2023/03/30 08:52:53;;;;;;;7.25;3.42;;;18.60;50.00;;;;;;5045211;28;20223;-57
2023/03/30 08:55:31;;;;;;;7.65;3.38;;;18.60;50.00;;;;;;5034887;28;20196;-56
2023/03/30 08:58:07;;;;;;;5.70;3.13;;;18.60;50.00;;;;;;5053789;28;20227;-55
2023/03/30 09:00:45;;;;;;;6.30;3.33;;;18.60;50.00;;;;;;5053803;28;20252;-53
2023/03/30 09:03:27;;;;;;;7.65;3.53;;;18.60;50.00;;;;;;5053714;28;20257;-53
2023/03/30 09:06:02;;;;;;;6.53;3.00;;;18.50;50.00;;;;;;5053560;28;20211;-53
2023/03/30 09:08:34;;;;;;;7.53;3.20;;;18.60;50.00;;;;;;5056155;28;20215;-56
2023/03/30 09:11:08;;;;;;;6.82;3.83;;;18.60;50.00;;;;;;5053601;28;20257;-58
2023/03/30 09:13:39;;;;;;;8.77;3.42;;;18.50;50.00;;;;;;5052533;28;20572;-54
2023/03/30 09:16:20;;;;;;;6.88;3.55;;;18.50;50.00;;;;;;5053055;28;20210;-55
2023/03/30 09:18:54;;;;;;;6.50;3.50;;;18.50;50.00;;;;;;5052715;28;21108;-54
2023/03/30 09:21:29;;;;;;;5.05;2.75;;;18.50;50.00;;;;;;5052971;28;20202;-56
2023/03/30 09:24:01;;;;;;;6.10;3.15;;;18.50;50.00;;;;;;5052967;28;20198;-54
2023/03/30 09:26:39;;;;;;;6.25;3.20;;;18.50;50.00;;;;;;5052617;28;20203;-55
2023/03/30 09:29:16;;;;;;;4.25;3.03;;;18.50;50.00;;;;;;5052690;28;20851;-56
2023/03/30 09:31:52;;;;;;;6.78;3.03;;;18.50;50.00;;;;;;5052722;28;20290;-54
2023/03/30 09:34:29;;;;;;;7.82;2.88;;;18.50;50.10;;;;;;5052828;28;20195;-53
2023/03/30 09:37:02;;;;;;;7.38;2.90;;;18.50;50.10;;;;;;5053039;28;20560;-54
2023/03/30 09:39:36;;;;;;;6.82;3.28;;;18.50;50.10;;;;;;5052434;28;20602;-55
2023/03/30 09:42:23;;;;;;;5.50;3.15;;;18.50;50.10;;;;;;5052740;28;20203;-56
2023/03/30 09:44:57;;;;;;;6.45;3.05;;;18.50;50.10;;;;;;5052573;28;20192;-53
2023/03/30 09:47:29;;;;;;;5.45;2.72;;;18.40;50.10;;;;;;5052331;28;20562;-54
2023/03/30 09:50:03;;;;;;;4.60;2.75;;;18.40;50.00;;;;;;5051904;28;20281;-57
2023/03/30 09:52:35;;;;;;;5.65;3.05;;;18.40;50.00;;;;;;5049405;28;20210;-58
2023/03/30 09:55:26;;;;;;;6.80;3.25;;;18.40;50.10;;;;;;5032561;28;20273;-52
2023/03/30 09:58:11;;;;;;;6.70;3.28;;;18.40;50.10;;;;;;5050639;28;20199;-58
2023/03/30 10:00:42;;;;;;;4.68;2.83;;;18.40;50.10;;;;;;5052282;28;20607;-57
2023/03/30 10:03:21;;;;;;;5.22;3.20;;;18.40;50.00;;;;;;5051643;28;20730;-57
2023/03/30 10:06:06;;;;;;;5.68;3.10;;;18.40;50.10;;;;;;5051869;28;20674;-54
2023/03/30 10:08:41;;;;;;;6.85;3.17;;;18.40;50.20;;;;;;5047041;28;20225;-52
2023/03/30 10:11:12;;;;;;;6.38;3.00;;;18.40;50.20;;;;;;5047738;28;20577;-54
2023/03/30 10:13:45;;;;;;;6.40;3.20;;;18.40;50.20;;;;;;5051183;28;20196;-54
2023/03/30 10:16:25;;;;;;;5.85;2.90;;;18.40;50.20;;;;;;5034420;28;20188;-55
2023/03/30 10:19:00;;;;;;;6.88;3.15;;;18.40;50.20;;;;;;5031985;28;20227;-51
2023/03/30 10:21:40;;;;;;;6.10;3.00;;;18.40;50.20;;;;;;5044610;28;20652;-52
2023/03/30 10:24:23;;;;;;;5.65;2.83;;;18.40;50.20;;;;;;5031450;28;20992;-54
2023/03/30 10:26:55;;;;;;;5.60;2.67;;;18.30;50.20;;;;;;5036169;28;20246;-53
2023/03/30 10:29:28;;;;;;;6.85;3.28;;;18.30;50.20;;;;;;5031010;28;20216;-55
2023/03/30 10:32:03;;;;;;;6.53;2.78;;;18.30;50.20;;;;;;5032192;28;20208;-55
2023/03/30 10:34:41;;;;;;;4.78;2.45;;;18.30;50.20;;;;;;5031475;28;20203;-53
2023/03/30 10:37:16;;;;;;;4.07;2.60;;;18.30;50.20;;;;;;5048105;28;20203;-54
2023/03/30 10:39:50;;;;;;;5.47;2.47;;;18.30;50.20;;;;;;5045504;28;20242;-56
2023/03/30 10:42:23;;;;;;;5.28;2.70;;;18.30;50.20;;;;;;5031148;28;20562;-53
2023/03/30 10:44:55;;;;;;;4.57;2.88;;;18.30;50.20;;;;;;5031840;28;20207;-54
2023/03/30 10:47:48;;;;;;;6.40;3.05;;;18.30;50.20;;;;;;5031772;28;20192;-54
2023/03/30 10:50:25;;;;;;;6.10;2.88;;;18.30;50.20;;;;;;5031550;28;20704;-54
2023/03/30 10:53:11;;;;;;;5.82;3.25;;;18.20;50.20;;;;;;5031529;28;20680;-54
2023/03/30 10:55:48;;;;;;;6.82;3.20;;;18.30;50.20;;;;;;5031670;28;20199;-56
2023/03/30 10:58:31;;;;;;;3.63;2.40;;;18.30;50.20;;;;;;5031212;28;20219;-51
2023/03/30 11:01:13;;;;;;;5.00;2.38;;;18.30;50.20;;;;;;5030991;28;20235;-54
2023/03/30 11:03:47;;;;;;;4.07;2.40;;;18.30;50.20;;;;;;5032788;28;20286;-51
2023/03/30 11:06:22;;;;;;;4.32;2.35;;;18.20;50.20;;;;;;5041734;28;20188;-55
2023/03/30 11:08:58;;;;;;;3.72;2.22;;;18.20;50.20;;;;;;5031597;28;20663;-54
2023/03/30 11:11:35;;;;;;;5.28;2.17;;;18.20;50.20;;;;;;5031782;28;20243;-54
2023/03/30 11:14:10;;;;;;;4.35;2.40;;;18.20;50.20;;;;;;5031255;28;20566;-56
2023/03/30 11:16:49;;;;;;;4.63;2.60;;;18.20;50.20;;;;;;5031413;28;20203;-54
2023/03/30 11:19:24;;;;;;;4.43;2.55;;;18.20;50.20;;;;;;5030943;28;20255;-56
2023/03/30 11:22:01;;;;;;;5.47;2.70;;;18.20;50.20;;;;;;5030906;28;20556;-55
2023/03/30 11:24:36;;;;;;;5.68;2.45;;;18.20;50.20;;;;;;5031106;28;20195;-57
2023/03/30 11:27:12;;;;;;;6.25;2.65;;;18.20;50.30;;;;;;5042329;28;20562;-53
2023/03/30 11:29:47;;;;;;;3.42;2.10;;;18.20;50.30;;;;;;5051092;28;20683;-56
2023/03/30 11:32:26;;;;;;;5.38;2.85;;;18.20;50.30;;;;;;5051030;28;20656;-55
2023/03/30 11:35:05;;;;;;;3.90;2.10;;;18.20;50.30;;;;;;5051258;28;20235;-55
2023/03/30 11:37:42;;;;;;;3.40;2.15;;;18.20;50.30;;;;;;5050652;28;20202;-56
2023/03/30 11:40:20;;;;;;;5.00;2.83;;;18.20;50.30;;;;;;5050105;28;20242;-54
2023/03/30 11:42:52;;;;;;;3.45;2.50;;;18.20;50.30;;;;;;5053631;28;20202;-55
2023/03/30 11:45:43;;;;;;;4.20;2.40;;;18.20;50.30;;;;;;5054578;28;20682;-56
2023/03/30 11:48:29;;;;;;;3.95;2.38;;;18.10;50.20;;;;;;5055150;28;20203;-56
2023/03/30 11:51:10;;;;;;;4.10;2.42;;;18.20;50.30;;;;;;5043017;28;20203;-56
2023/03/30 11:53:53;;;;;;;3.15;2.08;;;18.10;50.30;;;;;;5042662;28;20192;-54
2023/03/30 11:56:35;;;;;;;4.70;1.90;;;18.10;50.30;;;;;;5041520;28;20196;-55
2023/03/30 11:59:10;;;;;;;4.50;2.65;;;18.10;50.30;;;;;;5043486;28;20223;-56
2023/03/30 12:02:11;;;;;;;5.43;2.42;;;18.10;50.30;;;;;;5042916;28;20196;-54
2023/03/30 12:04:47;;;;;;;5.13;2.20;;;18.10;50.30;;;;;;5044105;28;20191;-53
2023/03/30 12:07:30;;;;;;;4.30;2.25;;;18.10;50.30;;;;;;5045282;28;20187;-54
2023/03/30 12:10:07;;;;;;;5.07;2.53;;;18.10;50.30;;;;;;5054185;28;20683;-54
2023/03/30 12:12:40;;;;;;;3.75;2.17;;;18.10;50.30;;;;;;5054787;28;20703;-52
2023/03/30 12:15:33;;;;;;;3.88;2.10;;;18.10;50.30;;;;;;5056571;28;20192;-53
2023/03/30 12:18:11;;;;;;;3.85;2.13;;;18.10;50.30;;;;;;5054887;28;20278;-56
2023/03/30 12:20:48;;;;;;;4.15;2.20;;;18.10;50.30;;;;;;5054486;28;20234;-55
2023/03/30 12:23:39;;;;;;;3.90;1.88;;;18.10;50.30;;;;;;5054738;28;20690;-53
2023/03/30 12:26:20;;;;;;;4.53;2.15;;;18.10;50.30;;;;;;5049003;28;20200;-55
2023/03/30 12:28:59;;;;;;;3.53;1.95;;;18.10;50.30;;;;;;5043327;28;20223;-54
2023/03/30 12:31:51;;;;;;;4.78;2.35;;;18.10;50.30;;;;;;5034692;28;20289;-53
2023/03/30 12:34:23;;;;;;;4.97;2.20;;;18.10;50.30;;;;;;5034427;28;20207;-54
2023/03/30 12:37:01;;;;;;;3.13;2.08;;;18.10;50.30;;;;;;5034434;28;20275;-55
2023/03/30 12:39:34;;;;;;;2.63;1.88;;;18.00;50.30;;;;;;5034042;28;20710;-56
2023/03/30 12:42:08;;;;;;;4.00;2.10;;;18.00;50.30;;;;;;5034373;28;20203;-56
2023/03/30 12:44:49;;;;;;;3.78;1.92;;;18.00;50.30;;;;;;5034182;28;20665;-55
2023/03/30 12:47:50;;;;;;;4.35;2.30;;;18.00;50.40;;;;;;5033941;28;20200;-54
2023/03/30 12:50:30;;;;;;;3.65;2.20;;;18.00;50.40;;;;;;5033561;28;20227;-53
2023/03/30 12:53:19;;;;;;;3.53;2.13;;;18.00;50.30;;;;;;5032679;28;20207;-55
2023/03/30 12:55:56;;;;;;;4.28;2.05;;;18.10;50.40;;;;;;5053131;28;20203;-54
2023/03/30 12:58:48;;;;;;;4.53;1.95;;;18.00;50.30;;;;;;5053195;28;20229;-54
2023/03/30 13:01:42;;;;;;;4.45;2.10;;;18.00;50.40;;;;;;5053704;28;20222;-54
2023/03/30 13:04:18;;;;;;;3.80;2.25;;;18.00;50.40;;;;;;5047058;28;20304;-53
2023/03/30 13:06:53;;;;;;;3.08;2.20;;;18.00;50.30;;;;;;5053612;28;20203;-55
2023/03/30 13:09:54;;;;;;;2.47;1.63;;;18.00;50.30;;;;;;5055658;28;20211;-56
2023/03/30 13:12:39;;;;;;;3.45;1.95;;;18.00;50.40;;;;;;5053571;28;20207;-55
2023/03/30 13:15:41;;;;;;;5.40;2.38;;;18.00;50.40;;;;;;5053446;28;20292;-54
2023/03/30 13:18:36;;;;;;;4.00;1.83;;;18.00;50.40;;;;;;5053005;28;20230;-57
2023/03/30 13:21:21;;;;;;;3.00;1.83;;;18.00;50.40;;;;;;5052862;28;20195;-56
2023/03/30 13:24:23;;;;;;;4.18;2.17;;;18.00;50.40;;;;;;5053326;28;20196;-56
2023/03/30 13:26:53;;;;;;;2.47;2.03;;;18.00;50.40;;;;;;5053094;28;20230;-55
2023/03/30 13:29:30;;;;;;;2.83;1.95;;;18.00;50.40;;;;;;5052894;28;20598;-55